Time;durP1;ratioP1;P1;durP2;ratioP2;P2;SDS_P1;SDS_P2;PMS_P1;PMS_P2;Temp;Humidity;BMP_temperature;BMP_pressure;BME280_temperature;BME280_humidity;BME280_pressure;Samples;Min_cycle;Max_cycle;Signal;HPM_P1;HPM_P2
2023/08/01 00:01:56;;;;;;;5.77;2.90;;;19.60;20.90;;;;;;5063048;28;46677;-83
2023/08/01 00:04:22;;;;;;;5.07;2.57;;;19.60;20.90;;;;;;5066338;28;47299;-83
2023/08/01 00:06:47;;;;;;;5.33;2.90;;;19.80;21.20;;;;;;5069423;28;46461;-84
2023/08/01 00:09:13;;;;;;;6.30;3.00;;;19.60;21.00;;;;;;5055989;28;46371;-85
2023/08/01 00:11:38;;;;;;;5.70;2.77;;;19.60;21.00;;;;;;5047534;28;46603;-83
2023/08/01 00:14:04;;;;;;;8.33;3.90;;;19.60;21.10;;;;;;5047751;28;48476;-83
2023/08/01 00:16:29;;;;;;;5.80;2.80;;;19.60;21.20;;;;;;5043926;28;46746;-82
2023/08/01 00:18:55;;;;;;;8.93;3.00;;;19.50;21.20;;;;;;5061432;28;46579;-81
2023/08/01 00:21:21;;;;;;;6.83;2.83;;;19.60;21.50;;;;;;5042570;28;46961;-81
2023/08/01 00:23:46;;;;;;;7.87;3.30;;;19.50;21.60;;;;;;5061149;28;46433;-82
2023/08/01 00:26:12;;;;;;;8.00;2.90;;;19.40;22.00;;;;;;5060946;28;46413;-83
2023/08/01 00:28:37;;;;;;;6.83;3.37;;;19.40;22.00;;;;;;5062132;28;46667;-84
2023/08/01 00:31:08;;;;;;;7.77;3.17;;;19.40;22.00;;;;;;5043302;28;46519;-82
2023/08/01 00:33:34;;;;;;;10.20;3.30;;;19.40;22.00;;;;;;5063083;28;46715;-83
2023/08/01 00:36:00;;;;;;;5.37;2.90;;;19.30;22.00;;;;;;5040948;28;46467;-84
2023/08/01 00:38:26;;;;;;;8.73;3.50;;;19.40;22.30;;;;;;5041889;28;46751;-83
2023/08/01 00:40:52;;;;;;;8.27;3.37;;;19.30;22.70;;;;;;5060828;28;46571;-82
2023/08/01 00:43:17;;;;;;;6.47;3.23;;;19.30;23.10;;;;;;5043912;28;49365;-82
2023/08/01 00:45:44;;;;;;;7.33;3.30;;;19.30;23.30;;;;;;5059691;28;46819;-82
2023/08/01 00:48:10;;;;;;;7.43;3.17;;;19.30;23.50;;;;;;5059241;28;46179;-82
2023/08/01 00:50:36;;;;;;;11.77;3.00;;;19.20;23.60;;;;;;5060015;28;46543;-83
2023/08/01 00:53:01;;;;;;;13.17;3.43;;;19.20;23.70;;;;;;5061715;28;46509;-82
2023/08/01 00:55:29;;;;;;;9.03;3.17;;;19.20;23.90;;;;;;5061892;28;46780;-82
2023/08/01 00:57:54;;;;;;;15.13;3.00;;;19.20;24.10;;;;;;5062605;28;46384;-83
2023/08/01 01:00:20;;;;;;;7.40;3.03;;;19.20;24.20;;;;;;5060851;28;46404;-82
2023/08/01 01:02:46;;;;;;;8.10;3.40;;;19.20;24.30;;;;;;5061617;28;47204;-83
2023/08/01 01:05:12;;;;;;;7.00;3.10;;;19.20;24.30;;;;;;5061889;28;46749;-84
2023/08/01 01:07:39;;;;;;;7.90;3.13;;;19.20;24.30;;;;;;5063125;28;46521;-84
2023/08/01 01:10:05;;;;;;;6.97;3.23;;;19.10;24.30;;;;;;5060442;28;46934;-81
2023/08/01 01:12:30;;;;;;;6.20;3.50;;;19.20;24.30;;;;;;5039819;28;48310;-82
2023/08/01 01:14:56;;;;;;;5.90;3.03;;;19.20;24.30;;;;;;5058342;28;45841;-84
2023/08/01 01:17:22;;;;;;;6.43;2.90;;;19.20;24.20;;;;;;5062277;28;46506;-82
2023/08/01 01:19:47;;;;;;;6.23;2.80;;;19.20;24.00;;;;;;5060266;28;46549;-83
2023/08/01 01:22:17;;;;;;;12.13;3.60;;;19.30;23.90;;;;;;5063491;28;46960;-85
2023/08/01 01:24:44;;;;;;;7.43;3.33;;;19.30;23.90;;;;;;5062595;28;46783;-83
2023/08/01 01:27:09;;;;;;;10.93;4.17;;;19.20;24.10;;;;;;5041998;28;46017;-83
2023/08/01 01:29:36;;;;;;;6.43;3.70;;;19.10;24.40;;;;;;5058901;28;46662;-82
2023/08/01 01:32:03;;;;;;;6.90;3.60;;;19.00;24.90;;;;;;5059207;28;46955;-83
2023/08/01 01:34:29;;;;;;;10.00;4.53;;;18.90;25.30;;;;;;5055716;28;46418;-84
2023/08/01 01:36:55;;;;;;;8.93;3.60;;;18.90;25.60;;;;;;5061222;28;46423;-83
2023/08/01 01:39:20;;;;;;;6.40;3.37;;;18.90;25.70;;;;;;5046082;28;46855;-81
2023/08/01 01:41:46;;;;;;;6.10;3.47;;;18.90;25.90;;;;;;5041534;28;48182;-82
2023/08/01 01:44:12;;;;;;;5.87;2.83;;;19.00;26.00;;;;;;5044544;28;46507;-82
2023/08/01 01:46:38;;;;;;;6.57;3.10;;;18.90;25.90;;;;;;5062959;28;46550;-84
2023/08/01 01:49:03;;;;;;;9.33;3.73;;;19.00;26.00;;;;;;5065583;28;45969;-83
2023/08/01 01:51:30;;;;;;;9.87;3.10;;;19.10;26.00;;;;;;5066980;28;46571;-82
2023/08/01 01:53:56;;;;;;;6.57;3.50;;;19.10;26.10;;;;;;5052701;28;46688;-83
2023/08/01 01:56:21;;;;;;;6.73;2.93;;;19.10;26.10;;;;;;5072578;28;46989;-84
2023/08/01 01:58:47;;;;;;;4.73;3.00;;;19.10;26.00;;;;;;5062387;28;46723;-83
2023/08/01 02:01:12;;;;;;;5.70;3.40;;;19.20;25.90;;;;;;5042222;28;48404;-84
2023/08/01 02:03:38;;;;;;;8.20;3.70;;;19.20;25.90;;;;;;5062954;28;45840;-83
2023/08/01 02:06:04;;;;;;;6.73;3.43;;;19.30;25.90;;;;;;5059512;28;46761;-81
2023/08/01 02:08:30;;;;;;;6.90;3.30;;;19.10;25.80;;;;;;5063186;28;46137;-81
2023/08/01 02:10:58;;;;;;;6.80;2.93;;;19.20;25.90;;;;;;5062432;28;46696;-82
2023/08/01 02:13:24;;;;;;;7.70;3.90;;;19.20;26.60;;;;;;5064702;28;46703;-81
2023/08/01 02:15:49;;;;;;;6.37;3.47;;;19.30;25.80;;;;;;5045491;28;46424;-82
2023/08/01 02:18:15;;;;;;;7.73;3.30;;;19.10;25.90;;;;;;5062103;28;46599;-82
2023/08/01 02:20:41;;;;;;;8.23;3.90;;;19.10;26.00;;;;;;5062013;28;46993;-83
2023/08/01 02:23:06;;;;;;;7.13;3.23;;;19.20;26.30;;;;;;5062910;28;46363;-79
2023/08/01 02:25:32;;;;;;;6.40;3.47;;;19.20;26.10;;;;;;5062130;28;45763;-81
2023/08/01 02:27:57;;;;;;;7.20;3.00;;;19.10;26.00;;;;;;5063287;28;47171;-82
2023/08/01 02:30:23;;;;;;;6.90;3.37;;;19.20;26.10;;;;;;5063218;28;47044;-80
2023/08/01 02:32:49;;;;;;;7.53;3.30;;;19.10;26.10;;;;;;5058964;28;46765;-81
2023/08/01 02:35:14;;;;;;;9.50;3.57;;;19.10;26.30;;;;;;5062368;28;45925;-82
2023/08/01 02:37:40;;;;;;;6.30;3.63;;;19.00;26.40;;;;;;5041961;28;46486;-83
2023/08/01 02:40:08;;;;;;;7.90;3.97;;;19.00;26.70;;;;;;5063190;28;47483;-82
2023/08/01 02:42:34;;;;;;;9.53;3.73;;;19.00;27.00;;;;;;5062130;28;46850;-81
2023/08/01 02:44:59;;;;;;;9.20;3.70;;;19.10;27.40;;;;;;5067470;28;46680;-82
2023/08/01 02:47:25;;;;;;;7.73;3.90;;;18.90;27.70;;;;;;5058208;28;47180;-81
2023/08/01 02:49:51;;;;;;;7.23;3.90;;;18.90;28.00;;;;;;5061844;28;47181;-82
2023/08/01 02:52:16;;;;;;;7.90;4.20;;;18.80;28.40;;;;;;5062290;28;46889;-85
2023/08/01 02:54:42;;;;;;;7.77;4.20;;;18.70;28.60;;;;;;5062166;28;46855;-82
2023/08/01 02:57:07;;;;;;;9.93;4.27;;;18.70;29.30;;;;;;5060825;28;46563;-82
2023/08/01 02:59:33;;;;;;;8.03;4.20;;;18.60;29.60;;;;;;5059093;28;48025;-83
2023/08/01 03:01:59;;;;;;;7.30;3.70;;;18.70;29.70;;;;;;5060867;28;46806;-82
2023/08/01 03:04:25;;;;;;;6.83;3.90;;;18.60;29.70;;;;;;5062304;28;46671;-82
2023/08/01 03:06:50;;;;;;;9.73;4.50;;;18.60;29.80;;;;;;5045129;28;46469;-82
2023/08/01 03:09:16;;;;;;;7.37;3.80;;;18.60;30.00;;;;;;5062264;28;46994;-82
2023/08/01 03:11:41;;;;;;;9.20;4.30;;;18.50;30.30;;;;;;5060237;28;46689;-82
2023/08/01 03:14:07;;;;;;;8.50;4.10;;;18.50;30.60;;;;;;5042742;28;46389;-83
2023/08/01 03:16:33;;;;;;;7.17;3.93;;;18.50;31.10;;;;;;5041907;28;46646;-83
2023/08/01 03:19:04;;;;;;;5.67;3.63;;;18.60;31.60;;;;;;5061087;28;46761;-82
2023/08/01 03:21:33;;;;;;;7.80;4.37;;;18.50;31.60;;;;;;5045903;28;46591;-81
2023/08/01 03:23:59;;;;;;;6.73;3.53;;;18.40;31.80;;;;;;5057648;28;46605;-81
2023/08/01 03:26:24;;;;;;;8.77;4.27;;;18.40;32.00;;;;;;5041659;28;46460;-82
2023/08/01 03:28:50;;;;;;;8.90;4.20;;;18.50;32.40;;;;;;5061389;28;49406;-82
2023/08/01 03:31:16;;;;;;;10.70;3.90;;;18.40;32.60;;;;;;5062864;28;46455;-82
2023/08/01 03:33:41;;;;;;;8.43;4.00;;;18.40;32.60;;;;;;5062039;28;46660;-82
2023/08/01 03:36:07;;;;;;;8.20;4.73;;;18.50;32.70;;;;;;5060352;28;46667;-83
2023/08/01 03:38:32;;;;;;;9.70;4.03;;;18.30;33.80;;;;;;5062125;28;46641;-83
2023/08/01 03:40:58;;;;;;;8.37;4.57;;;18.30;34.60;;;;;;5063077;28;46430;-84
2023/08/01 03:43:23;;;;;;;7.37;4.20;;;18.20;35.20;;;;;;5066260;28;46677;-84
2023/08/01 03:45:50;;;;;;;10.77;4.53;;;18.20;36.20;;;;;;5064502;28;46411;-83
2023/08/01 03:48:16;;;;;;;11.63;3.93;;;18.20;36.60;;;;;;5061637;28;47485;-83
2023/08/01 03:50:41;;;;;;;7.97;4.27;;;18.10;37.30;;;;;;5044917;28;46881;-82
2023/08/01 03:53:07;;;;;;;10.47;4.57;;;18.10;37.00;;;;;;5059865;28;46181;-81
2023/08/01 03:55:33;;;;;;;9.23;4.73;;;18.10;36.90;;;;;;5061871;28;46706;-84
2023/08/01 03:57:59;;;;;;;7.23;4.30;;;18.10;36.90;;;;;;5060331;28;46984;-85
2023/08/01 04:00:24;;;;;;;8.57;4.80;;;18.10;37.00;;;;;;5058571;28;46821;-82
2023/08/01 04:02:50;;;;;;;8.90;4.73;;;18.10;37.00;;;;;;5041099;28;46404;-82
2023/08/01 04:05:16;;;;;;;10.23;4.40;;;18.10;37.10;;;;;;5060993;28;47295;-81
2023/08/01 04:07:41;;;;;;;14.33;5.30;;;18.10;37.30;;;;;;5058320;28;47267;-79
2023/08/01 04:10:07;;;;;;;11.20;5.10;;;18.00;37.50;;;;;;5056893;27;46506;-83
2023/08/01 04:12:34;;;;;;;9.47;5.07;;;18.10;37.80;;;;;;5060164;28;46349;-81
2023/08/01 04:15:00;;;;;;;9.90;4.67;;;18.10;37.90;;;;;;5057808;28;46535;-80
2023/08/01 04:17:26;;;;;;;11.57;5.23;;;18.00;38.20;;;;;;5060150;28;46435;-81
2023/08/01 04:19:52;;;;;;;9.50;4.43;;;18.10;38.40;;;;;;5059609;28;46566;-82
2023/08/01 04:22:18;;;;;;;12.50;5.40;;;18.00;38.60;;;;;;5059804;28;46498;-82
2023/08/01 04:24:44;;;;;;;13.40;5.37;;;18.10;39.10;;;;;;5059537;28;46483;-82
2023/08/01 04:27:09;;;;;;;9.20;4.60;;;17.90;39.40;;;;;;5057670;28;46912;-82
2023/08/01 04:29:35;;;;;;;9.83;5.53;;;18.00;40.00;;;;;;5058107;28;46448;-81
2023/08/01 04:32:00;;;;;;;8.10;5.00;;;18.00;40.20;;;;;;5059581;28;46663;-82
2023/08/01 04:34:26;;;;;;;9.67;5.03;;;17.90;40.50;;;;;;5038131;28;46801;-83
2023/08/01 04:36:51;;;;;;;8.00;5.13;;;18.00;40.60;;;;;;5058158;28;46899;-81
2023/08/01 04:39:17;;;;;;;10.63;5.17;;;18.00;41.00;;;;;;5058399;28;46366;-83
2023/08/01 04:41:42;;;;;;;12.93;6.10;;;18.00;41.10;;;;;;5059920;28;46994;-81
2023/08/01 04:44:08;;;;;;;9.13;5.43;;;18.00;41.20;;;;;;5046020;28;46406;-82
2023/08/01 04:46:34;;;;;;;12.10;4.50;;;18.00;41.20;;;;;;5020362;28;48222;-81
2023/08/01 04:48:59;;;;;;;10.03;4.73;;;18.00;41.60;;;;;;5057992;28;46635;-83
2023/08/01 04:51:25;;;;;;;9.03;5.30;;;18.00;41.80;;;;;;5063322;28;46357;-83
2023/08/01 04:53:51;;;;;;;11.00;5.20;;;18.00;42.10;;;;;;5039613;28;46471;-81
2023/08/01 04:56:16;;;;;;;9.50;4.47;;;18.10;42.10;;;;;;5062265;28;47518;-82
2023/08/01 04:58:42;;;;;;;8.50;4.40;;;18.00;41.90;;;;;;5060030;28;46427;-82
2023/08/01 05:01:08;;;;;;;9.03;4.80;;;18.10;42.30;;;;;;5049818;28;46330;-82
2023/08/01 05:03:33;;;;;;;16.13;4.80;;;18.10;42.30;;;;;;5061684;28;46729;-82
2023/08/01 05:05:59;;;;;;;15.73;4.53;;;18.10;42.50;;;;;;5058442;28;46633;-82
2023/08/01 05:08:25;;;;;;;10.67;5.50;;;18.10;42.70;;;;;;5054319;28;46794;-82
2023/08/01 05:10:50;;;;;;;9.43;4.73;;;18.10;42.80;;;;;;5058097;28;46534;-82
2023/08/01 05:13:16;;;;;;;11.10;5.30;;;18.00;43.00;;;;;;5060022;28;46623;-82
2023/08/01 05:15:45;;;;;;;9.80;5.00;;;18.10;43.30;;;;;;5056902;28;49108;-82
2023/08/01 05:18:11;;;;;;;9.17;4.77;;;18.10;43.10;;;;;;5064523;28;46528;-82
2023/08/01 05:20:36;;;;;;;7.83;4.33;;;18.10;43.40;;;;;;5056657;28;46409;-82
2023/08/01 05:23:02;;;;;;;9.33;5.40;;;18.20;43.40;;;;;;5058153;28;46520;-82
2023/08/01 05:25:27;;;;;;;8.70;4.57;;;18.20;43.30;;;;;;5058691;28;47414;-82
2023/08/01 05:27:53;;;;;;;11.07;5.33;;;18.30;43.20;;;;;;5058039;28;46451;-84
2023/08/01 05:30:19;;;;;;;10.90;5.10;;;18.40;42.90;;;;;;5061146;28;46397;-82
2023/08/01 05:32:45;;;;;;;9.97;4.70;;;18.40;42.60;;;;;;5060355;28;46442;-84
2023/08/01 05:35:11;;;;;;;10.73;4.63;;;18.50;42.40;;;;;;5060431;28;47186;-81
2023/08/01 05:37:36;;;;;;;6.97;4.30;;;18.60;41.90;;;;;;5056519;28;46663;-80
2023/08/01 05:40:03;;;;;;;9.93;4.60;;;18.70;41.60;;;;;;5058485;28;46991;-82
2023/08/01 05:42:29;;;;;;;9.33;4.77;;;18.70;41.50;;;;;;5058427;28;46546;-82
2023/08/01 05:44:54;;;;;;;7.30;4.13;;;18.90;41.20;;;;;;5057090;28;46724;-80
2023/08/01 05:47:22;;;;;;;9.37;4.50;;;18.90;40.90;;;;;;5057330;28;47485;-82
2023/08/01 05:49:48;;;;;;;8.97;4.27;;;18.90;40.80;;;;;;5057262;28;46424;-81
2023/08/01 05:52:13;;;;;;;8.10;4.00;;;18.80;40.70;;;;;;5060121;28;46473;-81
2023/08/01 05:54:39;;;;;;;11.37;4.23;;;18.90;40.70;;;;;;5056912;28;46469;-81
2023/08/01 05:57:05;;;;;;;7.23;3.90;;;18.90;40.50;;;;;;5060134;28;46747;-81
2023/08/01 05:59:31;;;;;;;8.30;4.20;;;18.80;40.20;;;;;;5061597;28;46697;-81
2023/08/01 06:01:56;;;;;;;8.17;3.97;;;18.80;40.00;;;;;;5056212;28;47372;-82
2023/08/01 06:04:22;;;;;;;8.90;4.67;;;18.80;39.80;;;;;;5038626;28;48179;-81
2023/08/01 06:06:48;;;;;;;9.90;4.30;;;18.80;39.40;;;;;;5056412;28;46572;-82
2023/08/01 06:09:13;;;;;;;6.90;3.80;;;18.80;39.30;;;;;;5036031;28;46789;-82
2023/08/01 06:11:39;;;;;;;9.90;4.07;;;18.80;39.20;;;;;;5054812;28;46837;-80
2023/08/01 06:14:04;;;;;;;6.17;3.57;;;18.70;39.30;;;;;;5034836;28;48145;-82
2023/08/01 06:16:30;;;;;;;7.47;4.20;;;18.60;39.30;;;;;;5037236;28;46696;-81
2023/08/01 06:18:56;;;;;;;9.20;4.10;;;18.60;39.60;;;;;;5036381;28;46690;-81
2023/08/01 06:21:22;;;;;;;9.77;4.67;;;18.50;39.60;;;;;;5053612;28;46650;-81
2023/08/01 06:23:47;;;;;;;6.97;4.50;;;18.50;39.40;;;;;;5037425;28;48290;-82
2023/08/01 06:26:15;;;;;;;7.07;4.00;;;18.50;39.40;;;;;;5057240;28;46448;-80
2023/08/01 06:28:41;;;;;;;6.57;3.53;;;18.40;39.40;;;;;;5057110;28;46482;-81
2023/08/01 06:31:06;;;;;;;6.90;3.97;;;18.40;39.40;;;;;;5058753;28;46927;-83
2023/08/01 06:33:32;;;;;;;6.40;3.27;;;18.30;39.20;;;;;;5059193;28;48203;-81
2023/08/01 06:35:57;;;;;;;6.70;3.60;;;18.40;38.90;;;;;;5059419;28;45846;-82
2023/08/01 06:38:23;;;;;;;8.03;3.37;;;18.50;38.40;;;;;;5042656;28;46541;-82
2023/08/01 06:40:48;;;;;;;7.57;3.60;;;18.60;37.70;;;;;;5060671;28;46273;-81
2023/08/01 06:43:14;;;;;;;6.63;3.80;;;18.70;38.10;;;;;;5061238;28;46427;-83
2023/08/01 06:45:39;;;;;;;7.50;3.60;;;18.80;36.10;;;;;;5062583;28;46688;-83
2023/08/01 06:48:05;;;;;;;13.10;6.10;;;18.90;35.50;;;;;;5061081;28;46782;-83
2023/08/01 06:50:31;;;;;;;6.93;3.67;;;18.90;34.80;;;;;;5062448;28;46509;-84
2023/08/01 06:52:56;;;;;;;9.93;4.47;;;19.20;34.30;;;;;;5042706;28;48124;-81
2023/08/01 06:55:22;;;;;;;9.17;3.70;;;19.10;33.20;;;;;;5059903;28;46583;-81
2023/08/01 06:57:47;;;;;;;6.17;3.23;;;19.30;33.40;;;;;;5057414;28;46694;-81
2023/08/01 07:00:13;;;;;;;7.47;4.10;;;19.50;33.10;;;;;;5061312;28;46966;-83
2023/08/01 07:02:39;;;;;;;5.83;3.40;;;19.60;31.70;;;;;;5059868;28;48387;-81
2023/08/01 07:05:05;;;;;;;8.50;3.90;;;19.60;31.10;;;;;;5060184;28;46781;-82
2023/08/01 07:07:30;;;;;;;7.97;3.60;;;19.60;30.20;;;;;;5061953;28;46446;-81
2023/08/01 07:09:56;;;;;;;7.87;3.50;;;19.40;29.80;;;;;;5044408;28;46367;-81
2023/08/01 07:12:21;;;;;;;8.07;3.73;;;19.30;29.80;;;;;;5062247;28;47304;-84
2023/08/01 07:14:47;;;;;;;16.50;5.00;;;19.20;29.70;;;;;;5063134;28;46480;-82
2023/08/01 07:17:13;;;;;;;6.60;3.53;;;19.40;29.20;;;;;;5062002;28;46578;-82
2023/08/01 07:19:38;;;;;;;7.30;3.90;;;19.80;28.60;;;;;;5042165;28;46353;-82
2023/08/01 07:22:04;;;;;;;7.50;3.67;;;19.80;27.80;;;;;;5058481;28;46557;-82
2023/08/01 07:24:29;;;;;;;8.77;4.13;;;20.10;27.20;;;;;;5060262;28;46614;-82
2023/08/01 07:26:55;;;;;;;7.70;3.37;;;20.40;26.30;;;;;;5059263;28;46502;-82
2023/08/01 07:29:20;;;;;;;7.00;4.17;;;20.70;25.60;;;;;;5059659;28;46591;-83
2023/08/01 07:31:46;;;;;;;8.93;3.70;;;20.90;24.90;;;;;;5060700;28;46568;-83
2023/08/01 07:34:12;;;;;;;7.90;3.93;;;21.10;24.40;;;;;;5060914;28;46529;-82
2023/08/01 07:36:37;;;;;;;13.40;2.90;;;20.90;24.20;;;;;;5060711;28;46480;-82
2023/08/01 07:39:03;;;;;;;8.00;3.70;;;21.10;24.00;;;;;;5060036;28;46474;-81
2023/08/01 07:41:29;;;;;;;10.63;5.90;;;21.20;23.30;;;;;;5058749;28;46487;-80
2023/08/01 07:43:54;;;;;;;7.67;3.90;;;21.10;23.20;;;;;;5059929;28;46654;-81
2023/08/01 07:46:20;;;;;;;9.17;4.20;;;20.90;23.80;;;;;;5039566;28;46579;-83
2023/08/01 07:48:46;;;;;;;7.07;3.73;;;20.60;24.30;;;;;;5058641;28;47088;-82
2023/08/01 07:51:11;;;;;;;7.67;3.40;;;20.50;24.90;;;;;;5059635;28;46635;-81
2023/08/01 07:53:37;;;;;;;8.50;3.87;;;20.40;25.10;;;;;;5059323;28;46545;-83
2023/08/01 07:56:03;;;;;;;6.83;3.83;;;20.50;25.20;;;;;;5058979;28;46416;-81
2023/08/01 07:58:29;;;;;;;7.50;4.07;;;20.60;25.00;;;;;;5059354;28;46175;-83
2023/08/01 08:00:55;;;;;;;8.23;4.60;;;20.70;24.80;;;;;;5059627;28;46462;-83
2023/08/01 08:03:23;;;;;;;5.80;3.27;;;20.80;24.60;;;;;;5059784;28;46784;-82
2023/08/01 08:05:49;;;;;;;5.37;2.80;;;20.80;24.30;;;;;;5062795;28;46468;-83
2023/08/01 08:08:15;;;;;;;5.90;3.20;;;20.80;24.30;;;;;;5062436;28;46622;-82
2023/08/01 08:10:40;;;;;;;8.47;3.90;;;20.60;24.60;;;;;;5059997;28;47223;-82
2023/08/01 08:13:06;;;;;;;8.70;3.10;;;20.60;24.80;;;;;;5058354;28;46484;-82
2023/08/01 08:15:34;;;;;;;8.37;3.50;;;20.70;24.70;;;;;;5058479;28;46834;-82
2023/08/01 08:18:01;;;;;;;7.00;3.03;;;20.70;24.60;;;;;;5059160;28;46106;-82
2023/08/01 08:20:26;;;;;;;6.50;2.90;;;20.70;24.50;;;;;;5039251;28;48244;-82
2023/08/01 08:22:52;;;;;;;8.67;3.27;;;20.70;24.60;;;;;;5058109;28;46469;-83
2023/08/01 08:25:18;;;;;;;7.53;4.20;;;20.80;24.50;;;;;;5059584;28;46478;-82
2023/08/01 08:27:43;;;;;;;8.43;4.17;;;21.00;24.50;;;;;;5059143;28;46914;-84
2023/08/01 08:30:09;;;;;;;10.50;4.40;;;20.90;24.40;;;;;;5058262;28;46497;-83
2023/08/01 08:32:36;;;;;;;5.83;3.43;;;20.80;24.80;;;;;;5041048;28;46472;-82
2023/08/01 08:35:01;;;;;;;5.90;2.90;;;20.70;25.00;;;;;;5058558;28;46760;-83
2023/08/01 08:37:27;;;;;;;6.50;2.90;;;20.80;25.00;;;;;;5061152;28;46883;-83
2023/08/01 08:39:52;;;;;;;11.37;3.53;;;20.90;24.80;;;;;;5048180;28;48230;-82
2023/08/01 08:42:19;;;;;;;6.83;3.30;;;21.10;24.30;;;;;;5060161;28;46478;-82
2023/08/01 08:44:48;;;;;;;6.70;3.30;;;21.40;23.90;;;;;;5057954;28;46201;-80
2023/08/01 08:47:17;;;;;;;7.80;3.67;;;21.70;23.60;;;;;;5057645;28;46654;-81
2023/08/01 08:49:44;;;;;;;8.10;3.80;;;22.00;23.60;;;;;;5058176;28;46392;-82
2023/08/01 08:52:10;;;;;;;8.00;3.47;;;22.20;22.70;;;;;;5061084;28;46567;-82
2023/08/01 08:54:37;;;;;;;9.90;3.73;;;22.50;22.40;;;;;;5042079;28;45875;-81
2023/08/01 08:57:07;;;;;;;8.13;3.73;;;22.70;22.00;;;;;;5058630;28;46463;-82
2023/08/01 08:59:34;;;;;;;7.50;3.70;;;22.60;22.10;;;;;;5057109;28;46695;-83
2023/08/01 09:02:01;;;;;;;8.20;3.30;;;22.70;22.00;;;;;;5043437;28;46483;-82
2023/08/01 09:04:27;;;;;;;8.67;3.30;;;22.40;22.30;;;;;;5058688;28;46674;-82
2023/08/01 09:06:58;;;;;;;6.70;3.10;;;22.10;22.90;;;;;;5062087;28;47196;-83
2023/08/01 09:09:26;;;;;;;8.40;3.37;;;21.80;23.70;;;;;;5056030;28;46649;-83
2023/08/01 09:11:52;;;;;;;7.10;3.60;;;21.80;23.70;;;;;;5057769;28;47034;-81
2023/08/01 09:14:19;;;;;;;6.87;3.70;;;21.80;23.70;;;;;;5059640;28;45841;-80
2023/08/01 09:16:47;;;;;;;6.40;3.60;;;21.80;23.70;;;;;;5043557;28;46681;-81
2023/08/01 09:19:20;;;;;;;8.53;3.67;;;22.00;23.80;;;;;;5057479;28;46478;-83
2023/08/01 09:21:46;;;;;;;8.33;3.73;;;22.10;23.30;;;;;;5040276;28;46396;-79
2023/08/01 09:24:14;;;;;;;11.63;3.83;;;22.20;22.90;;;;;;5057361;28;46827;-82
2023/08/01 09:26:40;;;;;;;11.97;5.20;;;22.20;22.40;;;;;;5058399;28;46397;-83
2023/08/01 09:29:06;;;;;;;6.03;3.73;;;22.30;22.50;;;;;;5055110;28;48535;-82
2023/08/01 09:31:39;;;;;;;6.37;3.60;;;22.70;21.90;;;;;;5057852;28;46888;-82
2023/08/01 09:34:17;;;;;;;6.90;3.00;;;23.10;21.10;;;;;;5057197;28;46430;-82
2023/08/01 09:36:42;;;;;;;11.97;4.00;;;23.20;20.80;;;;;;5040171;28;47291;-82
2023/08/01 09:39:08;;;;;;;13.07;3.93;;;23.20;20.20;;;;;;5055671;28;46227;-82
2023/08/01 09:41:33;;;;;;;12.27;3.97;;;22.80;20.40;;;;;;5059008;28;47111;-83
2023/08/01 09:43:59;;;;;;;8.03;3.70;;;22.20;21.70;;;;;;5055813;28;46473;-82
2023/08/01 09:46:25;;;;;;;11.00;4.57;;;21.60;23.60;;;;;;5039195;28;46697;-82
2023/08/01 09:48:51;;;;;;;7.77;3.70;;;21.10;24.20;;;;;;5058278;28;47118;-82
2023/08/01 09:51:18;;;;;;;9.23;3.87;;;20.60;26.00;;;;;;5059107;28;46868;-81
2023/08/01 09:53:55;;;;;;;8.40;4.03;;;19.90;28.40;;;;;;5058788;28;46446;-83
2023/08/01 09:56:23;;;;;;;10.60;5.63;;;19.50;29.00;;;;;;5060545;28;46633;-83
2023/08/01 09:58:50;;;;;;;8.40;3.87;;;19.40;29.50;;;;;;5059674;28;48381;-83
2023/08/01 10:01:24;;;;;;;8.03;4.27;;;19.30;29.90;;;;;;5061130;28;47102;-81
2023/08/01 10:03:51;;;;;;;9.07;4.37;;;19.20;30.30;;;;;;5062744;28;46685;-82
2023/08/01 10:06:19;;;;;;;10.57;4.50;;;19.20;30.60;;;;;;5064767;28;46442;-83
2023/08/01 10:08:46;;;;;;;8.77;3.60;;;19.20;30.70;;;;;;5062160;28;48152;-81
2023/08/01 10:11:17;;;;;;;9.43;4.33;;;19.20;30.90;;;;;;5060645;28;46724;-82
2023/08/01 10:13:44;;;;;;;8.00;3.70;;;19.30;31.10;;;;;;5062680;28;46423;-82
2023/08/01 10:16:10;;;;;;;7.10;3.70;;;19.30;31.30;;;;;;5042766;28;46545;-83
2023/08/01 10:18:37;;;;;;;8.43;4.17;;;19.50;30.90;;;;;;5040648;28;49210;-82
2023/08/01 10:21:08;;;;;;;6.63;3.43;;;19.50;31.00;;;;;;5063625;28;47226;-84
2023/08/01 10:23:35;;;;;;;6.37;3.60;;;19.60;31.10;;;;;;5060525;28;46699;-85
2023/08/01 10:26:04;;;;;;;7.60;3.90;;;19.70;30.80;;;;;;5063601;28;46812;-82
2023/08/01 10:28:38;;;;;;;7.10;3.80;;;19.80;30.40;;;;;;5062950;28;47310;-83
2023/08/01 10:31:14;;;;;;;7.20;3.30;;;20.00;30.40;;;;;;5061503;28;47199;-82
2023/08/01 10:33:45;;;;;;;6.33;3.17;;;19.90;30.60;;;;;;5061885;28;45843;-81
2023/08/01 10:36:17;;;;;;;9.37;4.07;;;19.90;30.70;;;;;;5044291;28;46721;-82
2023/08/01 10:38:53;;;;;;;7.07;3.20;;;19.90;31.10;;;;;;5061189;28;47517;-81
2023/08/01 10:41:32;;;;;;;7.87;3.00;;;19.90;31.60;;;;;;5060365;28;46416;-82
2023/08/01 10:44:24;;;;;;;6.70;2.97;;;19.80;31.80;;;;;;5058520;28;46510;-81
2023/08/01 10:46:59;;;;;;;6.50;3.07;;;19.80;32.50;;;;;;5039672;28;46436;-83
2023/08/01 10:49:36;;;;;;;6.00;3.30;;;19.50;32.80;;;;;;5059750;28;46693;-82
2023/08/01 10:52:03;;;;;;;8.77;3.80;;;19.40;33.50;;;;;;5062404;28;46342;-83
2023/08/01 10:54:28;;;;;;;5.93;2.97;;;19.40;33.50;;;;;;5061125;28;46411;-84
2023/08/01 10:56:59;;;;;;;7.53;3.50;;;19.50;33.60;;;;;;5063137;28;46526;-81
2023/08/01 10:59:25;;;;;;;6.43;3.40;;;19.80;32.60;;;;;;5038554;28;48086;-83
2023/08/01 11:01:58;;;;;;;9.27;3.20;;;20.10;31.70;;;;;;5061967;28;46633;-83
2023/08/01 11:04:24;;;;;;;8.17;3.50;;;20.20;31.10;;;;;;5043737;28;46461;-83
2023/08/01 11:06:52;;;;;;;7.40;3.30;;;20.30;31.10;;;;;;5059340;28;46014;-84
2023/08/01 11:09:22;;;;;;;5.20;2.87;;;20.40;30.80;;;;;;5059257;28;46601;-82
2023/08/01 11:11:56;;;;;;;8.07;3.37;;;20.50;30.60;;;;;;5059924;28;46839;-82
2023/08/01 11:14:24;;;;;;;5.83;2.80;;;20.50;30.30;;;;;;5060572;28;46571;-83
2023/08/01 11:16:51;;;;;;;7.30;2.70;;;20.40;30.70;;;;;;5058760;28;46651;-83
2023/08/01 11:19:29;;;;;;;5.83;3.07;;;20.10;31.30;;;;;;5058704;28;47478;-81
2023/08/01 11:21:59;;;;;;;6.33;3.10;;;19.70;32.50;;;;;;5061517;28;46887;-82
2023/08/01 11:24:26;;;;;;;7.40;4.00;;;19.50;33.60;;;;;;5058623;28;46585;-82
2023/08/01 11:26:54;;;;;;;6.47;3.00;;;19.20;33.30;;;;;;5043053;28;46685;-81
2023/08/01 11:29:20;;;;;;;7.50;3.50;;;19.00;33.80;;;;;;5060096;28;46473;-81
2023/08/01 11:31:56;;;;;;;5.23;3.10;;;19.00;34.50;;;;;;5042994;28;46765;-82
2023/08/01 11:34:23;;;;;;;6.73;2.73;;;18.90;36.40;;;;;;5061470;28;45868;-81
2023/08/01 11:36:49;;;;;;;7.53;2.90;;;19.00;35.00;;;;;;5060319;28;46644;-82
2023/08/01 11:39:15;;;;;;;5.33;2.97;;;19.10;34.90;;;;;;5059709;28;47045;-82
2023/08/01 11:41:42;;;;;;;5.30;2.73;;;19.30;34.60;;;;;;5063071;28;46754;-83
2023/08/01 11:44:09;;;;;;;6.40;3.40;;;19.60;34.60;;;;;;5041966;28;47822;-82
2023/08/01 11:46:38;;;;;;;5.97;3.33;;;19.80;33.80;;;;;;5059407;28;45882;-83
2023/08/01 11:49:05;;;;;;;5.97;2.90;;;20.20;33.90;;;;;;5058033;28;47172;-83
2023/08/01 11:51:39;;;;;;;5.30;3.07;;;20.50;32.90;;;;;;5041577;28;46857;-83
2023/08/01 11:54:06;;;;;;;5.23;3.20;;;20.90;31.30;;;;;;5063481;28;45871;-82
2023/08/01 11:56:31;;;;;;;7.40;3.50;;;21.20;30.50;;;;;;5042910;28;46324;-82
2023/08/01 11:58:58;;;;;;;5.97;3.10;;;21.30;30.10;;;;;;5061122;28;46503;-83
2023/08/01 12:01:24;;;;;;;7.03;3.40;;;21.50;29.80;;;;;;5060373;28;46721;-83
2023/08/01 12:03:54;;;;;;;6.40;2.97;;;21.60;29.70;;;;;;5057830;28;46735;-82
2023/08/01 12:06:22;;;;;;;5.90;3.43;;;21.80;29.30;;;;;;5061023;28;46412;-83
2023/08/01 12:08:51;;;;;;;6.33;3.40;;;21.90;29.20;;;;;;5059623;28;46488;-83
2023/08/01 12:11:23;;;;;;;5.63;2.97;;;21.90;29.10;;;;;;5042230;28;46418;-83
2023/08/01 12:14:13;;;;;;;8.80;4.17;;;21.90;29.20;;;;;;5062318;28;46454;-84
2023/08/01 12:16:45;;;;;;;11.70;3.20;;;21.70;29.30;;;;;;5064270;28;46439;-83
2023/08/01 12:19:17;;;;;;;6.67;3.17;;;21.40;29.90;;;;;;5056001;28;46984;-82
2023/08/01 12:21:44;;;;;;;6.53;3.30;;;21.80;29.40;;;;;;5056601;28;46760;-83
2023/08/01 12:24:10;;;;;;;5.73;2.93;;;22.00;28.70;;;;;;5059040;28;46940;-83
2023/08/01 12:26:35;;;;;;;7.80;3.30;;;22.00;28.60;;;;;;5059717;28;46878;-83
2023/08/01 12:29:01;;;;;;;11.47;3.20;;;21.90;28.90;;;;;;5057667;28;47109;-80
2023/08/01 12:31:26;;;;;;;7.90;3.37;;;22.10;28.80;;;;;;5059307;28;46451;-83
2023/08/01 12:33:54;;;;;;;6.67;3.53;;;21.90;28.60;;;;;;5057615;28;46962;-82
2023/08/01 12:36:21;;;;;;;5.27;3.40;;;22.10;28.90;;;;;;5038976;28;46910;-83
2023/08/01 12:38:46;;;;;;;5.50;3.10;;;22.10;28.70;;;;;;5057596;28;48029;-84
2023/08/01 12:41:12;;;;;;;9.00;2.97;;;21.90;29.20;;;;;;5058517;28;46485;-82
2023/08/01 12:43:37;;;;;;;6.97;3.20;;;21.70;29.50;;;;;;5058265;28;46560;-82